sensor_id;sensor_type;location;lat;lon;timestamp;pressure;altitude;pressure_sealevel;temperature;humidity
68654;BME280;55636;51.108;13.622;2022-12-18T00:00:28;101979.72;;;-8.94;61.65
68654;BME280;55636;51.108;13.622;2022-12-18T00:01:33;101975.31;;;-8.95;61.77
68654;BME280;55636;51.108;13.622;2022-12-18T00:02:35;101971.78;;;-8.96;61.69
68654;BME280;55636;51.108;13.622;2022-12-18T00:03:38;101970.16;;;-8.98;61.66
68654;BME280;55636;51.108;13.622;2022-12-18T00:04:43;101967.56;;;-9.00;61.73
68654;BME280;55636;51.108;13.622;2022-12-18T00:05:49;101973.00;;;-9.02;61.78
68654;BME280;55636;51.108;13.622;2022-12-18T00:06:53;101969.56;;;-9.04;61.77
68654;BME280;55636;51.108;13.622;2022-12-18T00:07:55;101976.66;;;-9.03;61.78
68654;BME280;55636;51.108;13.622;2022-12-18T00:09:03;101985.75;;;-9.05;61.83
68654;BME280;55636;51.108;13.622;2022-12-18T00:10:05;101984.84;;;-9.06;61.93
68654;BME280;55636;51.108;13.622;2022-12-18T00:11:11;101987.63;;;-9.07;61.98
68654;BME280;55636;51.108;13.622;2022-12-18T00:12:13;101994.03;;;-9.10;61.79
68654;BME280;55636;51.108;13.622;2022-12-18T00:13:16;101993.25;;;-9.12;61.74
68654;BME280;55636;51.108;13.622;2022-12-18T00:14:19;101999.66;;;-9.14;61.79
68654;BME280;55636;51.108;13.622;2022-12-18T00:15:24;102003.41;;;-9.17;61.87
68654;BME280;55636;51.108;13.622;2022-12-18T00:16:28;102000.91;;;-9.20;61.74
68654;BME280;55636;51.108;13.622;2022-12-18T00:17:31;102010.00;;;-9.23;61.81
68654;BME280;55636;51.108;13.622;2022-12-18T00:18:34;102006.47;;;-9.23;61.84
68654;BME280;55636;51.108;13.622;2022-12-18T00:19:37;102005.69;;;-9.25;61.82
68654;BME280;55636;51.108;13.622;2022-12-18T00:20:39;102009.31;;;-9.26;61.82
68654;BME280;55636;51.108;13.622;2022-12-18T00:21:43;102004.06;;;-9.28;62.00
68654;BME280;55636;51.108;13.622;2022-12-18T00:22:45;102006.72;;;-9.28;61.87
68654;BME280;55636;51.108;13.622;2022-12-18T00:23:49;102007.69;;;-9.29;62.05
68654;BME280;55636;51.108;13.622;2022-12-18T00:24:51;102006.03;;;-9.31;61.98
68654;BME280;55636;51.108;13.622;2022-12-18T00:25:54;102001.66;;;-9.32;61.97
68654;BME280;55636;51.108;13.622;2022-12-18T00:26:56;101999.16;;;-9.36;61.86
68654;BME280;55636;51.108;13.622;2022-12-18T00:27:58;101993.88;;;-9.37;61.80
68654;BME280;55636;51.108;13.622;2022-12-18T00:29:05;102006.41;;;-9.38;61.74
68654;BME280;55636;51.108;13.622;2022-12-18T00:30:08;101999.34;;;-9.39;61.61
68654;BME280;55636;51.108;13.622;2022-12-18T00:31:17;102002.97;;;-9.40;61.60
68654;BME280;55636;51.108;13.622;2022-12-18T00:32:20;101999.59;;;-9.43;61.61
68654;BME280;55636;51.108;13.622;2022-12-18T00:33:22;102005.03;;;-9.45;61.51
68654;BME280;55636;51.108;13.622;2022-12-18T00:34:24;102005.97;;;-9.46;61.45
68654;BME280;55636;51.108;13.622;2022-12-18T00:35:26;101996.25;;;-9.47;61.56
68654;BME280;55636;51.108;13.622;2022-12-18T00:36:31;102005.13;;;-9.46;61.60
68654;BME280;55636;51.108;13.622;2022-12-18T00:37:35;102000.72;;;-9.47;61.54
68654;BME280;55636;51.108;13.622;2022-12-18T00:38:43;102010.59;;;-9.48;61.66
68654;BME280;55636;51.108;13.622;2022-12-18T00:39:47;102010.69;;;-9.49;61.57
68654;BME280;55636;51.108;13.622;2022-12-18T00:40:50;102002.72;;;-9.51;61.51
68654;BME280;55636;51.108;13.622;2022-12-18T00:41:52;102011.63;;;-9.50;61.54
68654;BME280;55636;51.108;13.622;2022-12-18T00:43:13;102010.75;;;-9.51;61.60
68654;BME280;55636;51.108;13.622;2022-12-18T00:44:19;102012.66;;;-9.53;61.85
68654;BME280;55636;51.108;13.622;2022-12-18T00:45:27;102018.00;;;-9.53;61.81
68654;BME280;55636;51.108;13.622;2022-12-18T00:46:37;102023.38;;;-9.53;61.89
68654;BME280;55636;51.108;13.622;2022-12-18T00:47:46;102016.19;;;-9.53;62.01
68654;BME280;55636;51.108;13.622;2022-12-18T00:48:48;102017.13;;;-9.54;61.77
68654;BME280;55636;51.108;13.622;2022-12-18T00:49:50;102020.69;;;-9.53;61.81
68654;BME280;55636;51.108;13.622;2022-12-18T00:50:53;102021.63;;;-9.54;61.87
68654;BME280;55636;51.108;13.622;2022-12-18T00:51:55;102018.00;;;-9.53;61.79
68654;BME280;55636;51.108;13.622;2022-12-18T00:52:57;102010.09;;;-9.55;61.67
68654;BME280;55636;51.108;13.622;2022-12-18T00:53:59;102020.78;;;-9.55;61.87
68654;BME280;55636;51.108;13.622;2022-12-18T00:55:02;102021.72;;;-9.56;61.77
68654;BME280;55636;51.108;13.622;2022-12-18T00:56:07;102020.00;;;-9.57;61.75
68654;BME280;55636;51.108;13.622;2022-12-18T00:57:09;102020.00;;;-9.57;61.61
68654;BME280;55636;51.108;13.622;2022-12-18T00:58:13;102013.84;;;-9.59;61.85
68654;BME280;55636;51.108;13.622;2022-12-18T00:59:17;102017.41;;;-9.58;61.86
68654;BME280;55636;51.108;13.622;2022-12-18T01:00:19;102012.06;;;-9.58;61.88
68654;BME280;55636;51.108;13.622;2022-12-18T01:01:22;102013.84;;;-9.59;61.97
68654;BME280;55636;51.108;13.622;2022-12-18T01:02:27;102014.75;;;-9.58;62.04
68654;BME280;55636;51.108;13.622;2022-12-18T01:03:29;102019.22;;;-9.59;62.06
68654;BME280;55636;51.108;13.622;2022-12-18T01:04:41;102020.25;;;-9.61;62.08
68654;BME280;55636;51.108;13.622;2022-12-18T01:05:44;102027.44;;;-9.62;61.99
68654;BME280;55636;51.108;13.622;2022-12-18T01:06:46;102037.19;;;-9.61;62.06
68654;BME280;55636;51.108;13.622;2022-12-18T01:07:48;102032.78;;;-9.62;62.21
68654;BME280;55636;51.108;13.622;2022-12-18T01:08:51;102034.50;;;-9.61;62.15
68654;BME280;55636;51.108;13.622;2022-12-18T01:09:53;102031.13;;;-9.64;62.33
68654;BME280;55636;51.108;13.622;2022-12-18T01:10:55;102028.47;;;-9.64;62.44
68654;BME280;55636;51.108;13.622;2022-12-18T01:11:57;102032.09;;;-9.65;62.33
68654;BME280;55636;51.108;13.622;2022-12-18T01:13:00;102030.38;;;-9.66;62.56
68654;BME280;55636;51.108;13.622;2022-12-18T01:14:05;102029.50;;;-9.67;62.58
68654;BME280;55636;51.108;13.622;2022-12-18T01:15:09;102034.00;;;-9.68;62.65
68654;BME280;55636;51.108;13.622;2022-12-18T01:16:14;102031.31;;;-9.68;62.68
68654;BME280;55636;51.108;13.622;2022-12-18T01:17:17;102036.69;;;-9.68;62.72
68654;BME280;55636;51.108;13.622;2022-12-18T01:18:25;102038.47;;;-9.68;62.83
68654;BME280;55636;51.108;13.622;2022-12-18T01:19:27;102033.22;;;-9.70;62.80
68654;BME280;55636;51.108;13.622;2022-12-18T01:20:29;102039.44;;;-9.69;62.71
68654;BME280;55636;51.108;13.622;2022-12-18T01:21:32;102036.78;;;-9.69;62.75
68654;BME280;55636;51.108;13.622;2022-12-18T01:22:38;102032.34;;;-9.70;62.92
68654;BME280;55636;51.108;13.622;2022-12-18T01:23:42;102039.50;;;-9.71;62.88
68654;BME280;55636;51.108;13.622;2022-12-18T01:24:44;102045.84;;;-9.72;62.85
68654;BME280;55636;51.108;13.622;2022-12-18T01:25:46;102043.16;;;-9.72;62.82
68654;BME280;55636;51.108;13.622;2022-12-18T01:26:48;102052.13;;;-9.73;62.86
68654;BME280;55636;51.108;13.622;2022-12-18T01:27:51;102047.63;;;-9.72;63.08
68654;BME280;55636;51.108;13.622;2022-12-18T01:28:54;102050.28;;;-9.72;63.05
68654;BME280;55636;51.108;13.622;2022-12-18T01:29:57;102057.56;;;-9.74;62.98
68654;BME280;55636;51.108;13.622;2022-12-18T01:31:15;102043.31;;;-9.75;62.96
68654;BME280;55636;51.108;13.622;2022-12-18T01:32:19;102044.25;;;-9.76;62.84
68654;BME280;55636;51.108;13.622;2022-12-18T01:33:21;102048.66;;;-9.75;62.81
68654;BME280;55636;51.108;13.622;2022-12-18T01:34:24;102043.41;;;-9.76;62.82
68654;BME280;55636;51.108;13.622;2022-12-18T01:35:29;102047.91;;;-9.77;62.81
68654;BME280;55636;51.108;13.622;2022-12-18T01:36:35;102046.16;;;-9.78;62.65
68654;BME280;55636;51.108;13.622;2022-12-18T01:37:38;102048.84;;;-9.78;62.72
68654;BME280;55636;51.108;13.622;2022-12-18T01:38:40;102045.38;;;-9.80;62.67
68654;BME280;55636;51.108;13.622;2022-12-18T01:39:43;102041.84;;;-9.80;62.84
68654;BME280;55636;51.108;13.622;2022-12-18T01:40:45;102039.28;;;-9.82;62.93
68654;BME280;55636;51.108;13.622;2022-12-18T01:41:47;102037.53;;;-9.83;63.01
68654;BME280;55636;51.108;13.622;2022-12-18T01:43:14;102035.63;;;-9.81;62.90
68654;BME280;55636;51.108;13.622;2022-12-18T01:45:51;102036.84;;;-9.87;63.10
68654;BME280;55636;51.108;13.622;2022-12-18T01:46:54;102034.25;;;-9.88;63.42
68654;BME280;55636;51.108;13.622;2022-12-18T01:48:02;102039.41;;;-9.85;63.41
68654;BME280;55636;51.108;13.622;2022-12-18T01:49:08;102044.78;;;-9.85;63.67
68654;BME280;55636;51.108;13.622;2022-12-18T01:51:21;102040.13;;;-9.81;63.90
68654;BME280;55636;51.108;13.622;2022-12-18T01:52:25;102038.13;;;-9.78;63.98
68654;BME280;55636;51.108;13.622;2022-12-18T01:53:29;102039.00;;;-9.77;64.07
68654;BME280;55636;51.108;13.622;2022-12-18T01:54:32;102033.81;;;-9.80;64.56
68654;BME280;55636;51.108;13.622;2022-12-18T01:56:52;102050.28;;;-9.72;64.86
68654;BME280;55636;51.108;13.622;2022-12-18T01:57:57;102047.53;;;-9.71;65.11
68654;BME280;55636;51.108;13.622;2022-12-18T01:59:06;102047.53;;;-9.71;65.27
68654;BME280;55636;51.108;13.622;2022-12-18T02:00:15;102045.66;;;-9.69;65.28
68654;BME280;55636;51.108;13.622;2022-12-18T02:01:21;102049.09;;;-9.66;65.37
68654;BME280;55636;51.108;13.622;2022-12-18T02:02:27;102050.75;;;-9.64;65.36
68654;BME280;55636;51.108;13.622;2022-12-18T02:03:32;102050.75;;;-9.64;65.32
68654;BME280;55636;51.108;13.622;2022-12-18T02:04:34;102050.81;;;-9.65;65.38
68654;BME280;55636;51.108;13.622;2022-12-18T02:05:45;102045.22;;;-9.61;65.19
68654;BME280;55636;51.108;13.622;2022-12-18T02:06:57;102051.31;;;-9.59;65.41
68654;BME280;55636;51.108;13.622;2022-12-18T02:08:16;102053.94;;;-9.57;65.26
68654;BME280;55636;51.108;13.622;2022-12-18T02:09:28;102050.22;;;-9.55;65.27
68654;BME280;55636;51.108;13.622;2022-12-18T02:12:08;102046.41;;;-9.50;64.93
68654;BME280;55636;51.108;13.622;2022-12-18T02:15:35;102047.25;;;-9.50;65.28
68654;BME280;55636;51.108;13.622;2022-12-18T02:18:19;102040.78;;;-9.46;65.20
68654;BME280;55636;51.108;13.622;2022-12-18T02:20:35;102049.69;;;-9.45;65.21
68654;BME280;55636;51.108;13.622;2022-12-18T02:21:50;102040.78;;;-9.46;65.07
68654;BME280;55636;51.108;13.622;2022-12-18T02:27:11;102047.72;;;-9.42;64.98
68654;BME280;55636;51.108;13.622;2022-12-18T02:28:16;102060.91;;;-9.39;64.97
68654;BME280;55636;51.108;13.622;2022-12-18T02:29:40;102058.22;;;-9.39;65.14
68654;BME280;55636;51.108;13.622;2022-12-18T02:31:13;102065.22;;;-9.36;65.02
68654;BME280;55636;51.108;13.622;2022-12-18T02:32:25;102062.53;;;-9.36;64.99
68654;BME280;55636;51.108;13.622;2022-12-18T02:33:30;102064.28;;;-9.35;64.98
68654;BME280;55636;51.108;13.622;2022-12-18T02:34:37;102062.44;;;-9.35;65.14
68654;BME280;55636;51.108;13.622;2022-12-18T02:35:43;102063.41;;;-9.36;65.05
68654;BME280;55636;51.108;13.622;2022-12-18T02:36:48;102058.97;;;-9.37;65.13
68654;BME280;55636;51.108;13.622;2022-12-18T02:37:53;102062.44;;;-9.35;65.07
68654;BME280;55636;51.108;13.622;2022-12-18T02:38:56;102064.28;;;-9.35;64.80
68654;BME280;55636;51.108;13.622;2022-12-18T02:40:03;102064.19;;;-9.33;64.94
68654;BME280;55636;51.108;13.622;2022-12-18T02:41:11;102058.72;;;-9.32;64.93
68654;BME280;55636;51.108;13.622;2022-12-18T02:42:16;102067.72;;;-9.33;64.86
68654;BME280;55636;51.108;13.622;2022-12-18T02:43:19;102058.72;;;-9.32;65.03
68654;BME280;55636;51.108;13.622;2022-12-18T02:44:22;102060.56;;;-9.32;64.88
68654;BME280;55636;51.108;13.622;2022-12-18T02:45:24;102060.47;;;-9.31;64.68
68654;BME280;55636;51.108;13.622;2022-12-18T02:47:38;102061.59;;;-9.35;64.96
68654;BME280;55636;51.108;13.622;2022-12-18T02:48:41;102067.63;;;-9.31;64.87
68654;BME280;55636;51.108;13.622;2022-12-18T02:49:52;102059.53;;;-9.30;64.74
68654;BME280;55636;51.108;13.622;2022-12-18T02:52:49;102066.75;;;-9.32;64.69
68654;BME280;55636;51.108;13.622;2022-12-18T02:54:03;102060.56;;;-9.32;64.64
68654;BME280;55636;51.108;13.622;2022-12-18T02:56:23;102053.38;;;-9.32;64.69
68654;BME280;55636;51.108;13.622;2022-12-18T02:57:40;102056.41;;;-9.38;64.68
68654;BME280;55636;51.108;13.622;2022-12-18T02:59:04;102056.31;;;-9.37;64.64
68654;BME280;55636;51.108;13.622;2022-12-18T03:00:19;102063.59;;;-9.39;64.57
68654;BME280;55636;51.108;13.622;2022-12-18T03:02:50;102064.34;;;-9.37;64.50
68654;BME280;55636;51.108;13.622;2022-12-18T03:04:16;102072.38;;;-9.37;64.58
68654;BME280;55636;51.108;13.622;2022-12-18T03:05:31;102066.25;;;-9.39;64.52
68654;BME280;55636;51.108;13.622;2022-12-18T03:06:48;102059.19;;;-9.40;64.59
68654;BME280;55636;51.108;13.622;2022-12-18T03:07:56;102061.00;;;-9.40;64.65
68654;BME280;55636;51.108;13.622;2022-12-18T03:09:08;102060.91;;;-9.39;64.56
68654;BME280;55636;51.108;13.622;2022-12-18T03:10:14;102060.81;;;-9.37;64.36
68654;BME280;55636;51.108;13.622;2022-12-18T03:11:19;102064.28;;;-9.35;64.43
68654;BME280;55636;51.108;13.622;2022-12-18T03:12:51;102062.63;;;-9.38;64.43
68654;BME280;55636;51.108;13.622;2022-12-18T03:13:57;102065.22;;;-9.36;64.33
68654;BME280;55636;51.108;13.622;2022-12-18T03:15:09;102071.34;;;-9.34;64.28
68654;BME280;55636;51.108;13.622;2022-12-18T03:16:29;102065.13;;;-9.35;64.23
68654;BME280;55636;51.108;13.622;2022-12-18T03:17:33;102065.03;;;-9.33;64.17
68654;BME280;55636;51.108;13.622;2022-12-18T03:18:52;102066.84;;;-9.33;64.21
68654;BME280;55636;51.108;13.622;2022-12-18T03:20:04;102068.75;;;-9.36;64.44
68654;BME280;55636;51.108;13.622;2022-12-18T03:21:09;102067.91;;;-9.36;64.23
68654;BME280;55636;51.108;13.622;2022-12-18T03:22:15;102069.53;;;-9.33;64.26
68654;BME280;55636;51.108;13.622;2022-12-18T03:23:26;102077.56;;;-9.33;64.13
68654;BME280;55636;51.108;13.622;2022-12-18T03:24:31;102076.69;;;-9.34;64.16
68654;BME280;55636;51.108;13.622;2022-12-18T03:25:38;102080.34;;;-9.35;64.21
68654;BME280;55636;51.108;13.622;2022-12-18T03:26:44;102074.09;;;-9.36;64.27
68654;BME280;55636;51.108;13.622;2022-12-18T03:27:54;102078.75;;;-9.39;64.33
68654;BME280;55636;51.108;13.622;2022-12-18T03:29:08;102076.78;;;-9.36;64.39
68654;BME280;55636;51.108;13.622;2022-12-18T03:30:14;102076.88;;;-9.37;64.32
68654;BME280;55636;51.108;13.622;2022-12-18T03:31:42;102071.63;;;-9.39;64.40
68654;BME280;55636;51.108;13.622;2022-12-18T03:34:16;102073.34;;;-9.38;64.43
68654;BME280;55636;51.108;13.622;2022-12-18T03:35:24;102067.00;;;-9.37;64.50
68654;BME280;55636;51.108;13.622;2022-12-18T03:36:29;102078.75;;;-9.39;64.73
68654;BME280;55636;51.108;13.622;2022-12-18T03:37:32;102074.38;;;-9.40;64.69
68654;BME280;55636;51.108;13.622;2022-12-18T03:38:34;102077.06;;;-9.40;64.88
68654;BME280;55636;51.108;13.622;2022-12-18T03:39:41;102080.50;;;-9.38;64.73
68654;BME280;55636;51.108;13.622;2022-12-18T03:41:03;102076.88;;;-9.37;64.87
68654;BME280;55636;51.108;13.622;2022-12-18T03:43:59;102077.66;;;-9.35;64.94
68654;BME280;55636;51.108;13.622;2022-12-18T03:47:59;102082.94;;;-9.33;65.04
68654;BME280;55636;51.108;13.622;2022-12-18T03:49:12;102074.78;;;-9.32;64.90
68654;BME280;55636;51.108;13.622;2022-12-18T03:50:22;102076.44;;;-9.29;64.91
68654;BME280;55636;51.108;13.622;2022-12-18T03:51:49;102071.94;;;-9.29;64.85
68654;BME280;55636;51.108;13.622;2022-12-18T03:53:02;102076.34;;;-9.28;64.92
68654;BME280;55636;51.108;13.622;2022-12-18T03:54:08;102082.56;;;-9.27;64.97
68654;BME280;55636;51.108;13.622;2022-12-18T03:55:18;102087.06;;;-9.28;65.05
68654;BME280;55636;51.108;13.622;2022-12-18T03:56:30;102076.44;;;-9.29;65.13
68654;BME280;55636;51.108;13.622;2022-12-18T03:57:35;102086.19;;;-9.28;65.04
68654;BME280;55636;51.108;13.622;2022-12-18T03:58:41;102086.09;;;-9.27;65.15
68654;BME280;55636;51.108;13.622;2022-12-18T03:59:58;102083.44;;;-9.27;65.23
68654;BME280;55636;51.108;13.622;2022-12-18T04:01:16;102090.41;;;-9.24;65.15
68654;BME280;55636;51.108;13.622;2022-12-18T04:02:22;102084.13;;;-9.23;65.23
68654;BME280;55636;51.108;13.622;2022-12-18T04:03:27;102086.59;;;-9.20;65.26
68654;BME280;55636;51.108;13.622;2022-12-18T04:04:31;102086.50;;;-9.19;65.20
68654;BME280;55636;51.108;13.622;2022-12-18T04:05:38;102092.75;;;-9.18;65.31
68654;BME280;55636;51.108;13.622;2022-12-18T04:06:42;102097.13;;;-9.17;65.39
68654;BME280;55636;51.108;13.622;2022-12-18T04:07:47;102092.53;;;-9.15;65.44
68654;BME280;55636;51.108;13.622;2022-12-18T04:08:58;102099.72;;;-9.15;65.52
68654;BME280;55636;51.108;13.622;2022-12-18T04:10:02;102098.59;;;-9.11;65.27
68654;BME280;55636;51.108;13.622;2022-12-18T04:11:06;102099.44;;;-9.11;65.43
68654;BME280;55636;51.108;13.622;2022-12-18T04:12:09;102099.28;;;-9.08;65.41
68654;BME280;55636;51.108;13.622;2022-12-18T04:13:22;102093.72;;;-9.05;65.59
68654;BME280;55636;51.108;13.622;2022-12-18T04:14:24;102088.38;;;-9.05;65.41
68654;BME280;55636;51.108;13.622;2022-12-18T04:15:32;102091.91;;;-9.04;65.40
68654;BME280;55636;51.108;13.622;2022-12-18T04:16:37;102094.50;;;-9.03;65.45
68654;BME280;55636;51.108;13.622;2022-12-18T04:17:48;102094.41;;;-9.01;65.62
68654;BME280;55636;51.108;13.622;2022-12-18T04:18:53;102097.00;;;-8.99;65.49
68654;BME280;55636;51.108;13.622;2022-12-18T04:19:58;102097.84;;;-8.99;65.67
68654;BME280;55636;51.108;13.622;2022-12-18T04:21:01;102093.38;;;-8.98;65.61
68654;BME280;55636;51.108;13.622;2022-12-18T04:22:09;102097.78;;;-8.97;65.59
68654;BME280;55636;51.108;13.622;2022-12-18T04:23:17;102102.94;;;-8.94;65.52
68654;BME280;55636;51.108;13.622;2022-12-18T04:24:20;102106.56;;;-8.95;65.52
68654;BME280;55636;51.108;13.622;2022-12-18T04:25:36;102102.84;;;-8.93;65.51
68654;BME280;55636;51.108;13.622;2022-12-18T04:26:42;102097.50;;;-8.93;65.33
68654;BME280;55636;51.108;13.622;2022-12-18T04:27:49;102092.94;;;-8.91;65.28
68654;BME280;55636;51.108;13.622;2022-12-18T04:28:52;102093.78;;;-8.90;65.11
68654;BME280;55636;51.108;13.622;2022-12-18T04:29:55;102090.16;;;-8.89;65.08
68654;BME280;55636;51.108;13.622;2022-12-18T04:30:57;102085.63;;;-8.89;65.01
68654;BME280;55636;51.108;13.622;2022-12-18T04:32:00;102091.94;;;-8.90;64.84
68654;BME280;55636;51.108;13.622;2022-12-18T04:33:08;102091.00;;;-8.89;64.78
68654;BME280;55636;51.108;13.622;2022-12-18T04:34:12;102104.41;;;-8.89;64.81
68654;BME280;55636;51.108;13.622;2022-12-18T04:35:22;102098.19;;;-8.89;64.75
68654;BME280;55636;51.108;13.622;2022-12-18T04:36:25;102099.03;;;-8.89;64.74
68654;BME280;55636;51.108;13.622;2022-12-18T04:37:29;102109.75;;;-8.89;64.75
68654;BME280;55636;51.108;13.622;2022-12-18T04:38:32;102105.28;;;-8.88;64.72
68654;BME280;55636;51.108;13.622;2022-12-18T04:39:51;102109.84;;;-8.90;64.56
68654;BME280;55636;51.108;13.622;2022-12-18T04:41:01;102111.59;;;-8.89;64.58
68654;BME280;55636;51.108;13.622;2022-12-18T04:42:06;102111.50;;;-8.88;64.65
68654;BME280;55636;51.108;13.622;2022-12-18T04:43:09;102122.19;;;-8.88;64.66
68654;BME280;55636;51.108;13.622;2022-12-18T04:44:13;102120.66;;;-8.92;64.59
68654;BME280;55636;51.108;13.622;2022-12-18T04:45:18;102119.78;;;-8.92;64.55
68654;BME280;55636;51.108;13.622;2022-12-18T04:46:20;102114.34;;;-8.91;64.51
68654;BME280;55636;51.108;13.622;2022-12-18T04:47:23;102112.53;;;-8.90;64.46
68654;BME280;55636;51.108;13.622;2022-12-18T04:48:28;102106.38;;;-8.92;64.53
68654;BME280;55636;51.108;13.622;2022-12-18T04:49:31;102114.41;;;-8.92;64.33
68654;BME280;55636;51.108;13.622;2022-12-18T04:50:33;102103.81;;;-8.94;64.45
68654;BME280;55636;51.108;13.622;2022-12-18T04:51:39;102106.56;;;-8.95;64.37
68654;BME280;55636;51.108;13.622;2022-12-18T04:52:48;102109.25;;;-8.95;64.36
68654;BME280;55636;51.108;13.622;2022-12-18T04:53:51;102105.63;;;-8.94;64.37
68654;BME280;55636;51.108;13.622;2022-12-18T04:54:56;102109.06;;;-8.92;64.33
68654;BME280;55636;51.108;13.622;2022-12-18T04:56:03;102117.03;;;-8.91;64.27
68654;BME280;55636;51.108;13.622;2022-12-18T04:57:08;102104.59;;;-8.92;64.16
68654;BME280;55636;51.108;13.622;2022-12-18T04:58:13;102111.19;;;-8.97;64.17
68654;BME280;55636;51.108;13.622;2022-12-18T04:59:29;102111.34;;;-9.01;64.17
68654;BME280;55636;51.108;13.622;2022-12-18T05:00:33;102112.03;;;-8.97;64.16
68654;BME280;55636;51.108;13.622;2022-12-18T05:01:35;102110.28;;;-8.98;64.05
68654;BME280;55636;51.108;13.622;2022-12-18T05:02:38;102103.22;;;-8.99;64.11
68654;BME280;55636;51.108;13.622;2022-12-18T05:03:41;102106.88;;;-9.00;63.98
68654;BME280;55636;51.108;13.622;2022-12-18T05:04:44;102108.84;;;-9.04;64.07
68654;BME280;55636;51.108;13.622;2022-12-18T05:05:50;102101.84;;;-9.06;64.10
68654;BME280;55636;51.108;13.622;2022-12-18T05:06:52;102108.94;;;-9.05;63.88
68654;BME280;55636;51.108;13.622;2022-12-18T05:07:55;102116.97;;;-9.05;64.03
68654;BME280;55636;51.108;13.622;2022-12-18T05:08:57;102104.44;;;-9.05;63.79
68654;BME280;55636;51.108;13.622;2022-12-18T05:10:00;102107.13;;;-9.05;63.67
68654;BME280;55636;51.108;13.622;2022-12-18T05:11:11;102110.03;;;-9.09;63.82
68654;BME280;55636;51.108;13.622;2022-12-18T05:12:13;102116.38;;;-9.10;63.68
68654;BME280;55636;51.108;13.622;2022-12-18T05:13:16;102109.19;;;-9.10;63.81
68654;BME280;55636;51.108;13.622;2022-12-18T05:14:19;102111.03;;;-9.10;63.69
68654;BME280;55636;51.108;13.622;2022-12-18T05:15:22;102111.88;;;-9.10;63.55
68654;BME280;55636;51.108;13.622;2022-12-18T05:16:24;102109.19;;;-9.10;63.62
68654;BME280;55636;51.108;13.622;2022-12-18T05:17:52;102109.44;;;-9.14;63.66
68654;BME280;55636;51.108;13.622;2022-12-18T05:18:59;102115.59;;;-9.12;63.63
68654;BME280;55636;51.108;13.622;2022-12-18T05:20:01;102110.25;;;-9.12;63.64
68654;BME280;55636;51.108;13.622;2022-12-18T05:21:04;102114.66;;;-9.11;63.45
68654;BME280;55636;51.108;13.622;2022-12-18T05:22:06;102119.22;;;-9.13;63.53
68654;BME280;55636;51.108;13.622;2022-12-18T05:23:09;102118.38;;;-9.14;63.35
68654;BME280;55636;51.108;13.622;2022-12-18T05:24:12;102115.69;;;-9.14;63.34
68654;BME280;55636;51.108;13.622;2022-12-18T05:25:17;102121.22;;;-9.17;63.23
68654;BME280;55636;51.108;13.622;2022-12-18T05:26:20;102111.59;;;-9.20;63.33
68654;BME280;55636;51.108;13.622;2022-12-18T05:27:22;102109.75;;;-9.19;63.42
68654;BME280;55636;51.108;13.622;2022-12-18T05:28:26;102107.94;;;-9.19;63.39
68654;BME280;55636;51.108;13.622;2022-12-18T05:29:29;102115.88;;;-9.17;63.25
68654;BME280;55636;51.108;13.622;2022-12-18T05:30:31;102106.28;;;-9.21;63.30
68654;BME280;55636;51.108;13.622;2022-12-18T05:31:34;102104.41;;;-9.19;63.31
68654;BME280;55636;51.108;13.622;2022-12-18T05:32:44;102106.59;;;-9.26;63.44
68654;BME280;55636;51.108;13.622;2022-12-18T05:33:48;102106.59;;;-9.26;63.45
68654;BME280;55636;51.108;13.622;2022-12-18T05:34:50;102115.38;;;-9.24;63.35
68654;BME280;55636;51.108;13.622;2022-12-18T05:35:55;102110.09;;;-9.25;63.31
68654;BME280;55636;51.108;13.622;2022-12-18T05:36:57;102105.53;;;-9.23;63.17
68654;BME280;55636;51.108;13.622;2022-12-18T05:38:05;102102.06;;;-9.25;63.20
68654;BME280;55636;51.108;13.622;2022-12-18T05:39:22;102112.97;;;-9.28;63.14
68654;BME280;55636;51.108;13.622;2022-12-18T05:40:26;102107.63;;;-9.28;63.19
68654;BME280;55636;51.108;13.622;2022-12-18T05:41:29;102112.97;;;-9.28;63.10
68654;BME280;55636;51.108;13.622;2022-12-18T05:42:31;102112.97;;;-9.28;63.28
68654;BME280;55636;51.108;13.622;2022-12-18T05:43:36;102115.56;;;-9.27;63.03
68654;BME280;55636;51.108;13.622;2022-12-18T05:44:39;102112.97;;;-9.28;63.24
68654;BME280;55636;51.108;13.622;2022-12-18T05:45:41;102114.78;;;-9.29;63.04
68654;BME280;55636;51.108;13.622;2022-12-18T05:46:44;102109.69;;;-9.33;63.12
68654;BME280;55636;51.108;13.622;2022-12-18T05:47:48;102107.03;;;-9.33;63.26
68654;BME280;55636;51.108;13.622;2022-12-18T05:48:51;102110.63;;;-9.35;63.16
68654;BME280;55636;51.108;13.622;2022-12-18T05:49:56;102111.50;;;-9.34;63.12
68654;BME280;55636;51.108;13.622;2022-12-18T05:51:05;102114.97;;;-9.32;63.16
68654;BME280;55636;51.108;13.622;2022-12-18T05:52:08;102107.03;;;-9.33;63.22
68654;BME280;55636;51.108;13.622;2022-12-18T05:53:12;102117.72;;;-9.33;63.06
68654;BME280;55636;51.108;13.622;2022-12-18T05:54:14;102113.31;;;-9.35;63.07
68654;BME280;55636;51.108;13.622;2022-12-18T05:55:18;102107.97;;;-9.35;62.97
68654;BME280;55636;51.108;13.622;2022-12-18T05:56:23;102109.84;;;-9.37;62.94
68654;BME280;55636;51.108;13.622;2022-12-18T05:57:33;102109.84;;;-9.37;63.12
68654;BME280;55636;51.108;13.622;2022-12-18T05:58:41;102110.72;;;-9.36;63.00
68654;BME280;55636;51.108;13.622;2022-12-18T05:59:44;102115.28;;;-9.38;63.15
68654;BME280;55636;51.108;13.622;2022-12-18T06:00:46;102117.31;;;-9.42;63.19
68654;BME280;55636;51.108;13.622;2022-12-18T06:01:48;102116.44;;;-9.42;63.09
68654;BME280;55636;51.108;13.622;2022-12-18T06:02:51;102116.44;;;-9.42;63.15
68654;BME280;55636;51.108;13.622;2022-12-18T06:03:54;102118.16;;;-9.41;63.10
68654;BME280;55636;51.108;13.622;2022-12-18T06:04:57;102123.50;;;-9.41;63.07
68654;BME280;55636;51.108;13.622;2022-12-18T06:05:59;102126.38;;;-9.44;63.06
68654;BME280;55636;51.108;13.622;2022-12-18T06:07:05;102122.22;;;-9.50;63.21
68654;BME280;55636;51.108;13.622;2022-12-18T06:08:08;102125.59;;;-9.46;63.11